sensor_id;sensor_type;location;lat;lon;timestamp;pressure;altitude;pressure_sealevel;temperature;humidity
12468;BME280;57850;52.922;6.256;2023-04-25T00:02:04;101215.47;;;10.42;100.00
12468;BME280;57850;52.922;6.256;2023-04-25T00:04:32;101211.19;;;10.39;100.00
12468;BME280;57850;52.922;6.256;2023-04-25T00:07:00;101217.00;;;10.49;100.00
12468;BME280;57850;52.922;6.256;2023-04-25T00:09:28;101227.34;;;10.52;100.00
12468;BME280;57850;52.922;6.256;2023-04-25T00:11:54;101214.91;;;10.60;100.00
12468;BME280;57850;52.922;6.256;2023-04-25T00:14:21;101210.97;;;10.47;100.00
12468;BME280;57850;52.922;6.256;2023-04-25T00:16:48;101213.13;;;10.33;100.00
12468;BME280;57850;52.922;6.256;2023-04-25T00:19:17;101214.19;;;9.95;100.00
12468;BME280;57850;52.922;6.256;2023-04-25T00:21:43;101196.03;;;9.92;100.00
12468;BME280;57850;52.922;6.256;2023-04-25T00:24:12;101175.97;;;9.94;100.00
12468;BME280;57850;52.922;6.256;2023-04-25T00:26:39;101176.47;;;10.06;100.00
12468;BME280;57850;52.922;6.256;2023-04-25T00:29:05;101189.78;;;9.97;100.00
12468;BME280;57850;52.922;6.256;2023-04-25T00:31:32;101178.63;;;9.92;100.00
12468;BME280;57850;52.922;6.256;2023-04-25T00:33:58;101183.50;;;10.04;100.00
12468;BME280;57850;52.922;6.256;2023-04-25T00:36:25;101197.16;;;10.12;100.00
12468;BME280;57850;52.922;6.256;2023-04-25T00:38:53;101192.81;;;10.13;100.00
12468;BME280;57850;52.922;6.256;2023-04-25T00:41:21;101208.28;;;9.88;100.00
12468;BME280;57850;52.922;6.256;2023-04-25T00:43:48;101242.66;;;9.36;100.00
12468;BME280;57850;52.922;6.256;2023-04-25T00:46:15;101217.91;;;9.86;100.00
12468;BME280;57850;52.922;6.256;2023-04-25T00:48:42;101219.41;;;9.95;100.00
12468;BME280;57850;52.922;6.256;2023-04-25T00:51:11;101222.19;;;9.89;100.00
12468;BME280;57850;52.922;6.256;2023-04-25T00:53:40;101225.38;;;9.98;100.00
12468;BME280;57850;52.922;6.256;2023-04-25T00:56:06;101209.28;;;10.15;100.00
12468;BME280;57850;52.922;6.256;2023-04-25T00:58:34;101226.84;;;10.08;100.00
12468;BME280;57850;52.922;6.256;2023-04-25T01:01:01;101246.41;;;9.92;100.00
12468;BME280;57850;52.922;6.256;2023-04-25T01:03:30;101231.47;;;9.97;100.00
12468;BME280;57850;52.922;6.256;2023-04-25T01:05:58;101231.53;;;9.96;100.00
12468;BME280;57850;52.922;6.256;2023-04-25T01:08:25;101240.09;;;9.99;100.00
12468;BME280;57850;52.922;6.256;2023-04-25T01:10:51;101260.13;;;9.65;100.00
12468;BME280;57850;52.922;6.256;2023-04-25T01:13:18;101252.69;;;9.51;100.00
12468;BME280;57850;52.922;6.256;2023-04-25T01:15:47;101265.34;;;9.65;100.00
12468;BME280;57850;52.922;6.256;2023-04-25T01:18:14;101255.19;;;9.88;100.00
12468;BME280;57850;52.922;6.256;2023-04-25T01:20:41;101271.59;;;9.92;100.00
12468;BME280;57850;52.922;6.256;2023-04-25T01:23:09;101278.41;;;9.97;100.00
12468;BME280;57850;52.922;6.256;2023-04-25T01:25:36;101280.06;;;10.00;100.00
12468;BME280;57850;52.922;6.256;2023-04-25T01:28:03;101300.59;;;9.80;100.00
12468;BME280;57850;52.922;6.256;2023-04-25T01:30:30;101292.53;;;9.89;100.00
12468;BME280;57850;52.922;6.256;2023-04-25T01:32:57;101303.06;;;9.86;100.00
12468;BME280;57850;52.922;6.256;2023-04-25T01:35:25;101304.97;;;9.78;100.00
12468;BME280;57850;52.922;6.256;2023-04-25T01:37:51;101289.56;;;10.02;100.00
12468;BME280;57850;52.922;6.256;2023-04-25T01:40:21;101300.72;;;10.07;100.00
12468;BME280;57850;52.922;6.256;2023-04-25T01:42:48;101327.44;;;9.83;100.00
12468;BME280;57850;52.922;6.256;2023-04-25T01:45:15;101339.91;;;9.71;100.00
12468;BME280;57850;52.922;6.256;2023-04-25T01:47:41;101322.22;;;9.83;100.00
12468;BME280;57850;52.922;6.256;2023-04-25T01:50:09;101314.09;;;9.95;100.00
12468;BME280;57850;52.922;6.256;2023-04-25T01:52:36;101311.34;;;10.00;100.00
12468;BME280;57850;52.922;6.256;2023-04-25T01:55:03;101328.66;;;9.68;100.00
12468;BME280;57850;52.922;6.256;2023-04-25T01:57:31;101313.63;;;9.80;100.00
12468;BME280;57850;52.922;6.256;2023-04-25T01:59:59;101320.53;;;9.81;100.00
12468;BME280;57850;52.922;6.256;2023-04-25T02:02:26;101317.56;;;9.96;100.00
12468;BME280;57850;52.922;6.256;2023-04-25T02:04:53;101332.09;;;10.04;100.00
12468;BME280;57850;52.922;6.256;2023-04-25T02:07:21;101325.91;;;10.08;100.00
12468;BME280;57850;52.922;6.256;2023-04-25T02:09:48;101350.03;;;9.83;100.00
12468;BME280;57850;52.922;6.256;2023-04-25T02:12:14;101342.16;;;9.84;100.00
12468;BME280;57850;52.922;6.256;2023-04-25T02:14:43;101332.25;;;9.98;100.00
12468;BME280;57850;52.922;6.256;2023-04-25T02:17:09;101332.13;;;10.03;100.00
12468;BME280;57850;52.922;6.256;2023-04-25T02:19:37;101355.44;;;9.75;100.00
12468;BME280;57850;52.922;6.256;2023-04-25T02:22:04;101356.19;;;9.43;100.00
12468;BME280;57850;52.922;6.256;2023-04-25T02:24:30;101346.91;;;9.32;100.00
12468;BME280;57850;52.922;6.256;2023-04-25T02:26:58;101339.72;;;9.43;100.00
12468;BME280;57850;52.922;6.256;2023-04-25T02:29:25;101337.16;;;9.41;100.00
12468;BME280;57850;52.922;6.256;2023-04-25T02:31:53;101327.78;;;9.69;100.00
12468;BME280;57850;52.922;6.256;2023-04-25T02:34:19;101335.63;;;9.68;100.00
12468;BME280;57850;52.922;6.256;2023-04-25T02:36:47;101327.31;;;9.88;100.00
12468;BME280;57850;52.922;6.256;2023-04-25T02:39:14;101340.81;;;9.69;100.00
12468;BME280;57850;52.922;6.256;2023-04-25T02:41:40;101336.16;;;9.82;100.00
12468;BME280;57850;52.922;6.256;2023-04-25T02:44:07;101343.34;;;9.73;100.00
12468;BME280;57850;52.922;6.256;2023-04-25T02:46:33;101356.25;;;9.77;100.00
12468;BME280;57850;52.922;6.256;2023-04-25T02:49:02;101366.38;;;9.52;100.00
12468;BME280;57850;52.922;6.256;2023-04-25T02:51:29;101354.78;;;9.67;100.00
12468;BME280;57850;52.922;6.256;2023-04-25T02:53:55;101349.41;;;9.73;100.00
12468;BME280;57850;52.922;6.256;2023-04-25T02:56:22;101363.16;;;9.78;100.00
12468;BME280;57850;52.922;6.256;2023-04-25T02:58:48;101359.47;;;9.87;100.00
12468;BME280;57850;52.922;6.256;2023-04-25T03:01:15;101372.84;;;9.73;100.00
12468;BME280;57850;52.922;6.256;2023-04-25T03:03:41;101356.25;;;9.77;100.00
12468;BME280;57850;52.922;6.256;2023-04-25T03:06:09;101369.22;;;9.80;100.00
12468;BME280;57850;52.922;6.256;2023-04-25T03:08:35;101365.47;;;9.90;100.00
12468;BME280;57850;52.922;6.256;2023-04-25T03:11:02;101402.09;;;9.49;100.00
12468;BME280;57850;52.922;6.256;2023-04-25T03:13:28;101411.56;;;9.11;100.00
12468;BME280;57850;52.922;6.256;2023-04-25T03:15:55;101395.00;;;9.17;100.00
12468;BME280;57850;52.922;6.256;2023-04-25T03:18:22;101405.66;;;9.05;100.00
12468;BME280;57850;52.922;6.256;2023-04-25T03:20:48;101402.88;;;9.12;100.00
12468;BME280;57850;52.922;6.256;2023-04-25T03:23:16;101410.75;;;9.09;100.00
12468;BME280;57850;52.922;6.256;2023-04-25T03:25:42;101381.56;;;9.35;100.00
12468;BME280;57850;52.922;6.256;2023-04-25T03:28:09;101394.75;;;9.28;100.00
12468;BME280;57850;52.922;6.256;2023-04-25T03:30:35;101385.69;;;9.44;100.00
12468;BME280;57850;52.922;6.256;2023-04-25T03:33:02;101391.25;;;9.30;100.00
12468;BME280;57850;52.922;6.256;2023-04-25T03:35:29;101403.59;;;9.21;100.00
12468;BME280;57850;52.922;6.256;2023-04-25T03:37:55;101405.56;;;9.09;100.00
12468;BME280;57850;52.922;6.256;2023-04-25T03:40:23;101396.94;;;9.07;100.00
12468;BME280;57850;52.922;6.256;2023-04-25T03:42:50;101402.13;;;9.07;100.00
12468;BME280;57850;52.922;6.256;2023-04-25T03:45:17;101409.41;;;8.92;100.00
12468;BME280;57850;52.922;6.256;2023-04-25T03:47:43;101400.94;;;8.82;100.00
12468;BME280;57850;52.922;6.256;2023-04-25T03:50:10;101398.41;;;8.78;100.00
12468;BME280;57850;52.922;6.256;2023-04-25T03:52:36;101401.06;;;8.75;100.00
12468;BME280;57850;52.922;6.256;2023-04-25T03:55:04;101401.19;;;8.70;100.00
12468;BME280;57850;52.922;6.256;2023-04-25T03:57:32;101402.81;;;8.74;100.00
12468;BME280;57850;52.922;6.256;2023-04-25T03:59:58;101405.53;;;8.68;100.00
12468;BME280;57850;52.922;6.256;2023-04-25T04:02:25;101409.13;;;8.63;100.00
12468;BME280;57850;52.922;6.256;2023-04-25T04:04:51;101414.66;;;8.44;100.00
12468;BME280;57850;52.922;6.256;2023-04-25T04:07:18;101389.59;;;8.85;100.00
12468;BME280;57850;52.922;6.256;2023-04-25T04:09:45;101401.69;;;8.43;100.00
12468;BME280;57850;52.922;6.256;2023-04-25T04:12:11;101402.59;;;8.42;100.00
12468;BME280;57850;52.922;6.256;2023-04-25T04:14:39;101394.84;;;8.83;100.00
12468;BME280;57850;52.922;6.256;2023-04-25T04:17:06;101407.50;;;9.00;100.00
12468;BME280;57850;52.922;6.256;2023-04-25T04:19:33;101413.25;;;9.15;100.00
12468;BME280;57850;52.922;6.256;2023-04-25T04:21:59;101433.41;;;8.61;100.00
12468;BME280;57850;52.922;6.256;2023-04-25T04:24:26;101419.09;;;8.84;100.00
12468;BME280;57850;52.922;6.256;2023-04-25T04:26:52;101426.16;;;9.20;100.00
12468;BME280;57850;52.922;6.256;2023-04-25T04:29:19;101427.44;;;9.01;100.00
12468;BME280;57850;52.922;6.256;2023-04-25T04:31:48;101424.38;;;9.22;100.00
12468;BME280;57850;52.922;6.256;2023-04-25T04:34:16;101415.38;;;9.37;100.00
12468;BME280;57850;52.922;6.256;2023-04-25T04:36:43;101407.09;;;9.58;100.00
12468;BME280;57850;52.922;6.256;2023-04-25T04:39:10;101427.16;;;9.54;100.00
12468;BME280;57850;52.922;6.256;2023-04-25T04:41:36;101435.81;;;9.15;100.00
12468;BME280;57850;52.922;6.256;2023-04-25T04:44:03;101422.44;;;9.32;100.00
12468;BME280;57850;52.922;6.256;2023-04-25T04:46:29;101422.41;;;9.33;100.00
12468;BME280;57850;52.922;6.256;2023-04-25T04:48:57;101421.00;;;9.57;100.00
12468;BME280;57850;52.922;6.256;2023-04-25T04:51:24;101429.03;;;9.46;100.00
12468;BME280;57850;52.922;6.256;2023-04-25T04:53:51;101422.00;;;9.51;100.00
12468;BME280;57850;52.922;6.256;2023-04-25T04:56:18;101439.53;;;9.43;100.00
12468;BME280;57850;52.922;6.256;2023-04-25T04:58:46;101452.03;;;9.28;100.00
12468;BME280;57850;52.922;6.256;2023-04-25T05:01:14;101459.78;;;9.31;100.00
12468;BME280;57850;52.922;6.256;2023-04-25T05:03:41;101463.63;;;9.11;100.00
12468;BME280;57850;52.922;6.256;2023-04-25T05:06:09;101474.22;;;9.04;100.00
12468;BME280;57850;52.922;6.256;2023-04-25T05:08:36;101476.41;;;8.81;100.00
12468;BME280;57850;52.922;6.256;2023-04-25T05:11:02;101472.66;;;8.95;100.00
12468;BME280;57850;52.922;6.256;2023-04-25T05:13:29;101454.63;;;9.29;100.00
12468;BME280;57850;52.922;6.256;2023-04-25T05:15:56;101452.75;;;9.34;100.00
12468;BME280;57850;52.922;6.256;2023-04-25T05:18:22;101484.53;;;9.08;100.00
12468;BME280;57850;52.922;6.256;2023-04-25T05:20:49;101475.47;;;9.28;100.00
12468;BME280;57850;52.922;6.256;2023-04-25T05:23:17;101477.59;;;9.50;100.00
12468;BME280;57850;52.922;6.256;2023-04-25T05:25:43;101484.72;;;9.42;100.00
12468;BME280;57850;52.922;6.256;2023-04-25T05:28:12;101504.03;;;9.31;100.00
12468;BME280;57850;52.922;6.256;2023-04-25T05:30:38;101506.81;;;9.23;100.00
12468;BME280;57850;52.922;6.256;2023-04-25T05:33:05;101520.16;;;9.06;100.00
12468;BME280;57850;52.922;6.256;2023-04-25T05:35:32;101513.66;;;9.27;100.00
12468;BME280;57850;52.922;6.256;2023-04-25T05:37:58;101511.38;;;9.55;100.00
12468;BME280;57850;52.922;6.256;2023-04-25T05:40:26;101517.06;;;9.31;100.00
12468;BME280;57850;52.922;6.256;2023-04-25T05:42:53;101521.25;;;9.39;100.00
12468;BME280;57850;52.922;6.256;2023-04-25T05:45:20;101508.50;;;9.65;100.00
12468;BME280;57850;52.922;6.256;2023-04-25T05:47:46;101521.63;;;9.20;100.00
12468;BME280;57850;52.922;6.256;2023-04-25T05:50:13;101502.56;;;9.60;100.00
12468;BME280;57850;52.922;6.256;2023-04-25T05:52:39;101516.84;;;9.43;100.00
12468;BME280;57850;52.922;6.256;2023-04-25T05:55:06;101503.16;;;9.72;100.00
12468;BME280;57850;52.922;6.256;2023-04-25T05:57:34;101513.03;;;9.57;100.00
12468;BME280;57850;52.922;6.256;2023-04-25T06:00:01;101504.44;;;9.92;100.00
12468;BME280;57850;52.922;6.256;2023-04-25T06:02:28;101515.53;;;10.00;100.00
12468;BME280;57850;52.922;6.256;2023-04-25T06:04:54;101528.94;;;9.84;100.00
12468;BME280;57850;52.922;6.256;2023-04-25T06:07:21;101527.25;;;9.83;100.00
12468;BME280;57850;52.922;6.256;2023-04-25T06:09:49;101527.91;;;9.92;100.00
12468;BME280;57850;52.922;6.256;2023-04-25T06:12:16;101534.38;;;9.75;100.00
12468;BME280;57850;52.922;6.256;2023-04-25T06:14:44;101537.22;;;9.64;100.00
12468;BME280;57850;52.922;6.256;2023-04-25T06:17:10;101535.03;;;9.84;100.00
12468;BME280;57850;52.922;6.256;2023-04-25T06:19:37;101541.53;;;9.65;100.00
12468;BME280;57850;52.922;6.256;2023-04-25T06:22:03;101544.13;;;9.65;100.00
12468;BME280;57850;52.922;6.256;2023-04-25T06:24:30;101548.50;;;9.64;100.00
12468;BME280;57850;52.922;6.256;2023-04-25T06:26:56;101542.63;;;9.93;100.00
12468;BME280;57850;52.922;6.256;2023-04-25T06:29:23;101533.09;;;10.32;100.00
12468;BME280;57850;52.922;6.256;2023-04-25T06:31:50;101539.66;;;10.47;100.00
12468;BME280;57850;52.922;6.256;2023-04-25T06:34:17;101535.75;;;10.97;100.00
12468;BME280;57850;52.922;6.256;2023-04-25T06:36:44;101550.25;;;10.76;100.00
12468;BME280;57850;52.922;6.256;2023-04-25T06:39:10;101570.31;;;10.74;100.00
12468;BME280;57850;52.922;6.256;2023-04-25T06:41:37;101589.38;;;10.42;100.00
12468;BME280;57850;52.922;6.256;2023-04-25T06:44:03;101606.25;;;9.86;100.00
12468;BME280;57850;52.922;6.256;2023-04-25T06:46:30;101580.03;;;9.92;100.00
12468;BME280;57850;52.922;6.256;2023-04-25T06:48:58;101584.00;;;10.10;100.00
12468;BME280;57850;52.922;6.256;2023-04-25T06:51:24;101573.72;;;10.41;100.00
12468;BME280;57850;52.922;6.256;2023-04-25T06:53:53;101585.97;;;10.39;100.00
12468;BME280;57850;52.922;6.256;2023-04-25T06:56:20;101583.03;;;10.52;100.00
12468;BME280;57850;52.922;6.256;2023-04-25T06:58:46;101585.75;;;10.48;100.00
12468;BME280;57850;52.922;6.256;2023-04-25T07:01:13;101599.31;;;10.25;100.00
12468;BME280;57850;52.922;6.256;2023-04-25T07:03:40;101584.09;;;10.44;100.00
12468;BME280;57850;52.922;6.256;2023-04-25T07:06:08;101584.00;;;10.48;100.00
12468;BME280;57850;52.922;6.256;2023-04-25T07:08:34;101579.91;;;10.73;100.00
12468;BME280;57850;52.922;6.256;2023-04-25T07:11:01;101585.84;;;10.79;100.00
12468;BME280;57850;52.922;6.256;2023-04-25T07:13:27;101585.13;;;10.73;100.00
12468;BME280;57850;52.922;6.256;2023-04-25T07:15:54;101575.00;;;10.94;100.00
12468;BME280;57850;52.922;6.256;2023-04-25T07:18:21;101582.75;;;10.97;100.00
12468;BME280;57850;52.922;6.256;2023-04-25T07:20:47;101578.28;;;11.02;100.00
12468;BME280;57850;52.922;6.256;2023-04-25T07:23:15;101599.22;;;10.66;100.00
12468;BME280;57850;52.922;6.256;2023-04-25T07:25:42;101575.47;;;11.42;100.00
12468;BME280;57850;52.922;6.256;2023-04-25T07:28:08;101575.69;;;11.65;100.00
12468;BME280;57850;52.922;6.256;2023-04-25T07:30:35;101580.50;;;11.80;100.00
12468;BME280;57850;52.922;6.256;2023-04-25T07:33:02;101628.22;;;10.90;100.00
12468;BME280;57850;52.922;6.256;2023-04-25T07:35:28;101630.94;;;10.85;100.00
12468;BME280;57850;52.922;6.256;2023-04-25T07:37:55;101637.50;;;10.66;100.00
12468;BME280;57850;52.922;6.256;2023-04-25T07:40:22;101640.78;;;10.74;100.00
12468;BME280;57850;52.922;6.256;2023-04-25T07:42:49;101621.28;;;11.53;100.00
12468;BME280;57850;52.922;6.256;2023-04-25T07:45:16;101617.81;;;11.53;100.00
12468;BME280;57850;52.922;6.256;2023-04-25T07:47:42;101620.84;;;11.38;100.00
12468;BME280;57850;52.922;6.256;2023-04-25T07:50:09;101631.31;;;11.05;100.00
12468;BME280;57850;52.922;6.256;2023-04-25T07:52:36;101650.38;;;10.73;100.00
12468;BME280;57850;52.922;6.256;2023-04-25T07:55:03;101654.53;;;10.02;100.00
12468;BME280;57850;52.922;6.256;2023-04-25T07:57:31;101665.94;;;9.54;100.00
12468;BME280;57850;52.922;6.256;2023-04-25T07:59:58;101663.16;;;9.17;100.00
12468;BME280;57850;52.922;6.256;2023-04-25T08:02:25;101656.84;;;9.30;100.00
12468;BME280;57850;52.922;6.256;2023-04-25T08:04:53;101653.09;;;9.43;100.00
12468;BME280;57850;52.922;6.256;2023-04-25T08:07:20;101625.22;;;9.93;100.00
12468;BME280;57850;52.922;6.256;2023-04-25T08:09:46;101623.19;;;10.82;100.00
12468;BME280;57850;52.922;6.256;2023-04-25T08:12:13;101616.72;;;10.97;100.00
12468;BME280;57850;52.922;6.256;2023-04-25T08:14:41;101630.59;;;11.31;100.00
12468;BME280;57850;52.922;6.256;2023-04-25T08:17:07;101642.25;;;10.84;100.00
12468;BME280;57850;52.922;6.256;2023-04-25T08:19:34;101650.16;;;10.81;100.00
12468;BME280;57850;52.922;6.256;2023-04-25T08:22:00;101648.66;;;10.72;100.00
12468;BME280;57850;52.922;6.256;2023-04-25T08:24:27;101632.31;;;11.34;100.00
12468;BME280;57850;52.922;6.256;2023-04-25T08:26:53;101613.88;;;11.69;100.00
12468;BME280;57850;52.922;6.256;2023-04-25T08:29:20;101610.09;;;12.38;100.00
12468;BME280;57850;52.922;6.256;2023-04-25T08:31:49;101637.06;;;12.12;100.00
12468;BME280;57850;52.922;6.256;2023-04-25T08:34:18;101654.81;;;11.71;100.00
12468;BME280;57850;52.922;6.256;2023-04-25T08:36:45;101620.44;;;12.95;100.00
12468;BME280;57850;52.922;6.256;2023-04-25T08:39:11;101610.72;;;13.49;100.00
12468;BME280;57850;52.922;6.256;2023-04-25T08:41:38;101622.00;;;13.00;100.00
12468;BME280;57850;52.922;6.256;2023-04-25T08:44:08;101640.34;;;12.74;100.00
12468;BME280;57850;52.922;6.256;2023-04-25T08:46:37;101605.81;;;13.40;100.00
12468;BME280;57850;52.922;6.256;2023-04-25T08:49:07;101596.75;;;13.95;100.00
12468;BME280;57850;52.922;6.256;2023-04-25T08:51:36;101594.44;;;13.64;100.00
12468;BME280;57850;52.922;6.256;2023-04-25T08:54:11;101607.66;;;13.61;100.00
12468;BME280;57850;52.922;6.256;2023-04-25T08:56:38;101630.41;;;13.36;100.00
12468;BME280;57850;52.922;6.256;2023-04-25T08:59:07;101676.25;;;12.43;100.00
12468;BME280;57850;52.922;6.256;2023-04-25T09:01:34;101696.22;;;11.87;100.00
12468;BME280;57850;52.922;6.256;2023-04-25T09:04:01;101663.38;;;12.63;100.00
12468;BME280;57850;52.922;6.256;2023-04-25T09:06:30;101636.78;;;13.29;100.00
12468;BME280;57850;52.922;6.256;2023-04-25T09:09:01;101650.41;;;13.38;100.00
12468;BME280;57850;52.922;6.256;2023-04-25T09:11:29;101638.00;;;13.68;100.00
12468;BME280;57850;52.922;6.256;2023-04-25T09:14:11;101604.94;;;14.54;100.00
12468;BME280;57850;52.922;6.256;2023-04-25T09:16:57;101584.19;;;14.90;100.00
12468;BME280;57850;52.922;6.256;2023-04-25T09:19:25;101586.09;;;14.86;100.00
12468;BME280;57850;52.922;6.256;2023-04-25T09:21:55;101643.50;;;13.61;100.00
12468;BME280;57850;52.922;6.256;2023-04-25T09:24:30;101631.38;;;14.05;100.00
12468;BME280;57850;52.922;6.256;2023-04-25T09:26:57;101592.75;;;14.53;100.00
12468;BME280;57850;52.922;6.256;2023-04-25T09:29:29;101573.22;;;15.00;100.00
12468;BME280;57850;52.922;6.256;2023-04-25T09:32:17;101575.41;;;15.31;100.00
12468;BME280;57850;52.922;6.256;2023-04-25T09:34:47;101602.31;;;15.16;100.00
12468;BME280;57850;52.922;6.256;2023-04-25T09:37:20;101634.41;;;14.17;100.00
12468;BME280;57850;52.922;6.256;2023-04-25T09:39:47;101662.53;;;14.14;100.00
12468;BME280;57850;52.922;6.256;2023-04-25T09:42:16;101738.34;;;12.67;100.00
12468;BME280;57850;52.922;6.256;2023-04-25T09:44:43;101740.78;;;12.44;100.00
12468;BME280;57850;52.922;6.256;2023-04-25T09:47:11;101743.84;;;12.28;100.00
12468;BME280;57850;52.922;6.256;2023-04-25T09:49:39;101732.50;;;12.59;100.00
12468;BME280;57850;52.922;6.256;2023-04-25T09:52:08;101656.63;;;14.97;100.00
12468;BME280;57850;52.922;6.256;2023-04-25T09:54:36;101596.78;;;16.56;100.00
12468;BME280;57850;52.922;6.256;2023-04-25T09:57:09;101522.34;;;18.76;100.00
12468;BME280;57850;52.922;6.256;2023-04-25T09:59:38;101509.88;;;18.78;100.00
12468;BME280;57850;52.922;6.256;2023-04-25T10:02:06;101469.19;;;19.09;100.00
12468;BME280;57850;52.922;6.256;2023-04-25T10:04:34;101531.34;;;17.97;100.00
12468;BME280;57850;52.922;6.256;2023-04-25T10:07:01;101544.75;;;17.61;100.00
12468;BME280;57850;52.922;6.256;2023-04-25T10:09:31;101504.00;;;17.82;100.00
12468;BME280;57850;52.922;6.256;2023-04-25T10:12:00;101624.56;;;16.07;100.00
12468;BME280;57850;52.922;6.256;2023-04-25T10:14:29;101716.19;;;14.75;100.00
12468;BME280;57850;52.922;6.256;2023-04-25T10:16:57;101782.63;;;12.74;100.00
12468;BME280;57850;52.922;6.256;2023-04-25T10:19:24;101759.00;;;13.31;100.00
12468;BME280;57850;52.922;6.256;2023-04-25T10:21:54;101754.50;;;13.61;100.00
12468;BME280;57850;52.922;6.256;2023-04-25T10:24:21;101706.41;;;15.22;100.00
12468;BME280;57850;52.922;6.256;2023-04-25T10:26:50;101746.09;;;13.76;100.00
12468;BME280;57850;52.922;6.256;2023-04-25T10:29:23;101719.47;;;14.58;100.00
12468;BME280;57850;52.922;6.256;2023-04-25T10:31:50;101719.66;;;14.30;100.00
12468;BME280;57850;52.922;6.256;2023-04-25T10:34:18;101687.91;;;15.23;100.00
12468;BME280;57850;52.922;6.256;2023-04-25T10:36:50;101644.41;;;16.14;100.00
12468;BME280;57850;52.922;6.256;2023-04-25T10:39:21;101615.41;;;16.70;100.00
12468;BME280;57850;52.922;6.256;2023-04-25T10:41:52;101566.69;;;17.94;100.00
12468;BME280;57850;52.922;6.256;2023-04-25T10:44:20;101549.09;;;18.56;100.00
12468;BME280;57850;52.922;6.256;2023-04-25T10:46:47;101527.56;;;18.32;100.00
12468;BME280;57850;52.922;6.256;2023-04-25T10:49:29;101571.50;;;17.71;100.00
12468;BME280;57850;52.922;6.256;2023-04-25T10:52:14;101587.13;;;16.91;100.00
12468;BME280;57850;52.922;6.256;2023-04-25T10:54:42;101565.31;;;17.87;100.00
12468;BME280;57850;52.922;6.256;2023-04-25T10:57:27;101570.19;;;17.79;100.00
12468;BME280;57850;52.922;6.256;2023-04-25T10:59:58;101546.66;;;17.75;100.00
12468;BME280;57850;52.922;6.256;2023-04-25T11:02:27;101526.41;;;17.75;100.00
12468;BME280;57850;52.922;6.256;2023-04-25T11:04:54;101571.22;;;17.09;100.00
12468;BME280;57850;52.922;6.256;2023-04-25T11:07:26;101567.06;;;17.55;100.00
12468;BME280;57850;52.922;6.256;2023-04-25T11:09:55;101502.19;;;18.59;100.00
12468;BME280;57850;52.922;6.256;2023-04-25T11:12:21;101498.19;;;18.52;100.00
12468;BME280;57850;52.922;6.256;2023-04-25T11:14:58;101515.09;;;18.50;100.00
12468;BME280;57850;52.922;6.256;2023-04-25T11:17:27;101561.63;;;17.74;100.00
12468;BME280;57850;52.922;6.256;2023-04-25T11:19:54;101647.16;;;15.74;100.00
12468;BME280;57850;52.922;6.256;2023-04-25T11:22:21;101662.13;;;16.11;100.00
12468;BME280;57850;52.922;6.256;2023-04-25T11:24:48;101562.06;;;18.45;100.00
12468;BME280;57850;52.922;6.256;2023-04-25T11:27:15;101524.16;;;18.90;100.00
12468;BME280;57850;52.922;6.256;2023-04-25T11:29:42;101603.97;;;17.23;100.00
12468;BME280;57850;52.922;6.256;2023-04-25T11:32:09;101645.50;;;16.66;100.00
12468;BME280;57850;52.922;6.256;2023-04-25T11:34:36;101690.75;;;15.79;100.00
12468;BME280;57850;52.922;6.256;2023-04-25T11:37:03;101718.63;;;15.01;100.00
12468;BME280;57850;52.922;6.256;2023-04-25T11:39:31;101746.50;;;14.38;100.00
12468;BME280;57850;52.922;6.256;2023-04-25T11:41:58;101726.44;;;15.24;100.00
12468;BME280;57850;52.922;6.256;2023-04-25T11:44:26;101720.72;;;15.35;100.00
12468;BME280;57850;52.922;6.256;2023-04-25T11:46:52;101730.19;;;15.19;100.00
12468;BME280;57850;52.922;6.256;2023-04-25T11:49:19;101756.25;;;15.03;100.00
12468;BME280;57850;52.922;6.256;2023-04-25T11:51:48;101761.47;;;14.60;100.00
12468;BME280;57850;52.922;6.256;2023-04-25T11:54:18;101759.88;;;14.31;100.00
12468;BME280;57850;52.922;6.256;2023-04-25T11:56:48;101735.63;;;14.92;100.00
12468;BME280;57850;52.922;6.256;2023-04-25T11:59:16;101707.72;;;15.53;100.00
12468;BME280;57850;52.922;6.256;2023-04-25T12:01:48;101635.50;;;16.73;100.00
12468;BME280;57850;52.922;6.256;2023-04-25T12:04:16;101581.59;;;18.11;100.00
12468;BME280;57850;52.922;6.256;2023-04-25T12:06:44;101516.25;;;19.04;99.24
12468;BME280;57850;52.922;6.256;2023-04-25T12:09:15;101545.69;;;18.38;99.74
12468;BME280;57850;52.922;6.256;2023-04-25T12:11:44;101530.91;;;18.65;99.21
12468;BME280;57850;52.922;6.256;2023-04-25T12:14:11;101490.41;;;19.51;94.84
12468;BME280;57850;52.922;6.256;2023-04-25T12:16:41;101481.22;;;19.84;92.70
12468;BME280;57850;52.922;6.256;2023-04-25T12:19:08;101473.16;;;20.26;94.66
12468;BME280;57850;52.922;6.256;2023-04-25T12:21:35;101630.41;;;17.38;99.47
12468;BME280;57850;52.922;6.256;2023-04-25T12:24:10;101706.09;;;16.47;100.00
12468;BME280;57850;52.922;6.256;2023-04-25T12:26:53;101706.78;;;16.32;100.00
12468;BME280;57850;52.922;6.256;2023-04-25T12:29:22;101640.78;;;17.58;100.00
12468;BME280;57850;52.922;6.256;2023-04-25T12:31:50;101696.59;;;16.43;100.00
12468;BME280;57850;52.922;6.256;2023-04-25T12:34:17;101754.44;;;15.47;100.00
12468;BME280;57850;52.922;6.256;2023-04-25T12:36:44;101800.69;;;15.09;100.00
12468;BME280;57850;52.922;6.256;2023-04-25T12:39:14;101851.47;;;14.15;100.00
12468;BME280;57850;52.922;6.256;2023-04-25T12:41:41;101861.50;;;13.78;100.00
12468;BME280;57850;52.922;6.256;2023-04-25T12:44:09;101856.41;;;13.98;100.00
12468;BME280;57850;52.922;6.256;2023-04-25T12:46:35;101834.25;;;14.31;100.00
12468;BME280;57850;52.922;6.256;2023-04-25T12:49:03;101812.09;;;14.86;100.00